Time;durP1;ratioP1;P1;durP2;ratioP2;P2;SDS_P1;SDS_P2;PMS_P1;PMS_P2;Temp;Humidity;BMP_temperature;BMP_pressure;BME280_temperature;BME280_humidity;BME280_pressure;Samples;Min_cycle;Max_cycle;Signal;HPM_P1;HPM_P2
2021/07/01 00:03:22;;;;;;;;;;;;;;;16.67;68.90;98865.78;530748;1091;103472;-63
2021/07/01 00:13:27;;;;;;;;;;;;;;;16.71;68.96;98865.45;531347;1091;103403;-63
2021/07/01 00:23:31;;;;;;;;;;;;;;;16.64;69.13;98847.55;531395;1090;101727;-61
2021/07/01 00:33:36;;;;;;;;;;;;;;;16.49;68.95;98849.08;530740;1091;102812;-63
2021/07/01 00:43:41;;;;;;;;;;;;;;;16.27;69.42;98835.34;531367;1092;102432;-62
2021/07/01 00:53:46;;;;;;;;;;;;;;;16.14;69.83;98811.92;530739;1091;102611;-62
2021/07/01 01:03:51;;;;;;;;;;;;;;;15.88;70.08;98804.73;531446;1090;102427;-61
2021/07/01 01:13:56;;;;;;;;;;;;;;;15.65;70.49;98794.60;531323;1091;103195;-62
2021/07/01 01:24:03;;;;;;;;;;;;;;;15.41;71.39;98798.67;527310;1090;103196;-62
2021/07/01 01:34:08;;;;;;;;;;;;;;;15.26;71.79;98794.84;531257;1090;102901;-62
2021/07/01 01:44:12;;;;;;;;;;;;;;;15.20;72.09;98787.52;531362;1090;102491;-61
2021/07/01 01:54:17;;;;;;;;;;;;;;;15.34;72.47;98789.66;530725;1090;101963;-62
2021/07/01 02:04:22;;;;;;;;;;;;;;;15.43;71.88;98808.27;531392;1092;101841;-62
2021/07/01 02:14:27;;;;;;;;;;;;;;;15.54;71.80;98814.16;531425;1090;102035;-62
2021/07/01 02:24:32;;;;;;;;;;;;;;;15.61;71.91;98810.92;530716;1090;102953;-63
2021/07/01 02:34:40;;;;;;;;;;;;;;;15.76;71.20;98817.35;531345;1090;102420;-63
2021/07/01 02:44:45;;;;;;;;;;;;;;;16.02;71.06;98827.20;530754;1090;103190;-63
2021/07/01 02:54:50;;;;;;;;;;;;;;;16.55;70.80;98842.33;531357;1090;103132;-61
2021/07/01 03:04:54;;;;;;;;;;;;;;;19.10;67.42;98837.64;531368;1092;102720;-62
2021/07/01 03:14:59;;;;;;;;;;;;;;;21.64;63.41;98826.91;530680;1090;102292;-62
2021/07/01 03:25:04;;;;;;;;;;;;;;;21.78;60.39;98842.11;531401;1090;101664;-62
2021/07/01 03:35:10;;;;;;;;;;;;;;;22.23;57.96;98841.89;531368;1093;102453;-63
2021/07/01 03:45:15;;;;;;;;;;;;;;;21.38;58.26;98849.63;530755;1091;103491;-62
2021/07/01 03:55:20;;;;;;;;;;;;;;;21.53;60.00;98852.27;531410;1090;103111;-62
2021/07/01 04:05:24;;;;;;;;;;;;;;;28.24;53.20;98846.00;529415;1089;102426;-61
2021/07/01 04:15:29;;;;;;;;;;;;;;;33.31;45.47;98837.84;530741;1090;102052;-62
2021/07/01 04:25:35;;;;;;;;;;;;;;;37.26;38.52;98831.33;529403;1090;101997;-62
2021/07/01 04:35:40;;;;;;;;;;;;;;;40.14;32.81;98835.42;513381;1092;103789;-62
2021/07/01 04:45:44;;;;;;;;;;;;;;;42.63;29.38;98819.61;520507;1090;102676;-64
2021/07/01 04:55:49;;;;;;;;;;;;;;;43.38;25.76;98840.28;531340;1090;102056;-62
2021/07/01 05:05:54;;;;;;;;;;;;;;;37.10;28.13;98847.93;530714;1090;101998;-63
2021/07/01 05:16:00;;;;;;;;;;;;;;;32.50;32.45;98845.34;531309;1090;102359;-63
2021/07/01 05:26:05;;;;;;;;;;;;;;;30.01;35.18;98850.45;531362;1090;102738;-62
2021/07/01 05:36:11;;;;;;;;;;;;;;;27.79;38.11;98876.97;530740;1088;102272;-63
2021/07/01 05:46:16;;;;;;;;;;;;;;;26.35;40.21;98880.55;531355;1090;102987;-63
2021/07/01 05:56:21;;;;;;;;;;;;;;;25.69;41.83;98888.81;531340;1090;102852;-61
2021/07/01 06:06:26;;;;;;;;;;;;;;;25.10;43.37;98871.85;530756;1090;102329;-63
2021/07/01 06:16:32;;;;;;;;;;;;;;;25.19;43.72;98879.45;531352;1092;103563;-62
2021/07/01 06:26:37;;;;;;;;;;;;;;;25.69;43.27;98878.06;531393;1092;102696;-62
2021/07/01 06:36:44;;;;;;;;;;;;;;;30.93;39.15;98880.06;531386;1089;102071;-63
2021/07/01 06:46:50;;;;;;;;;;;;;;;38.11;31.94;98882.67;531318;1091;103327;-62
2021/07/01 06:56:55;;;;;;;;;;;;;;;36.83;28.77;98887.63;530754;1091;103138;-63
2021/07/01 07:07:00;;;;;;;;;;;;;;;32.42;31.46;98890.92;531346;1090;102254;-63
2021/07/01 07:17:06;;;;;;;;;;;;;;;29.91;34.28;98889.80;531346;1089;101488;-63
2021/07/01 07:27:12;;;;;;;;;;;;;;;29.18;35.69;98886.75;513893;1091;103142;-62
2021/07/01 07:37:17;;;;;;;;;;;;;;;30.55;34.97;98881.66;521671;1093;102544;-62
2021/07/01 07:47:22;;;;;;;;;;;;;;;41.18;28.64;98869.98;531368;1089;101856;-62
2021/07/01 07:57:28;;;;;;;;;;;;;;;39.48;25.28;98858.70;530713;1090;102542;-63
2021/07/01 08:07:34;;;;;;;;;;;;;;;33.56;28.32;98868.95;531443;1090;102287;-62
2021/07/01 08:17:42;;;;;;;;;;;;;;;33.59;29.49;98883.92;531366;1092;101774;-62
2021/07/01 08:27:49;;;;;;;;;;;;;;;33.20;29.85;98879.69;531293;1091;103124;-63
2021/07/01 08:37:54;;;;;;;;;;;;;;;32.23;31.15;98865.20;531359;1090;103123;-62
2021/07/01 08:48:03;;;;;;;;;;;;;;;32.27;30.91;98860.91;530701;1089;102496;-62
2021/07/01 08:58:11;;;;;;;;;;;;;;;32.17;31.21;98863.54;531386;1090;101494;-63
2021/07/01 09:08:19;;;;;;;;;;;;;;;31.83;31.95;98868.13;531359;1090;102059;-64
2021/07/01 09:18:24;;;;;;;;;;;;;;;31.09;32.83;98882.96;530661;1093;102219;-63
2021/07/01 09:28:29;;;;;;;;;;;;;;;31.57;32.26;98884.13;531352;1093;103346;-62
2021/07/01 09:38:34;;;;;;;;;;;;;;;30.81;32.52;98892.91;531404;1091;103294;-63
2021/07/01 09:48:43;;;;;;;;;;;;;;;29.92;34.10;98879.81;530730;1092;102818;-62
2021/07/01 09:58:49;;;;;;;;;;;;;;;29.81;34.15;98867.97;531392;1090;102859;-62
2021/07/01 10:08:54;;;;;;;;;;;;;;;29.80;35.01;98852.00;527301;1089;103045;-63
2021/07/01 10:18:59;;;;;;;;;;;;;;;29.29;34.86;98833.70;531402;1090;102239;-62
2021/07/01 10:29:04;;;;;;;;;;;;;;;29.36;35.74;98854.13;528644;1090;102972;-62
2021/07/01 10:39:09;;;;;;;;;;;;;;;29.60;35.40;98862.17;529770;1090;102987;-64
2021/07/01 10:49:14;;;;;;;;;;;;;;;29.80;34.25;98860.11;531387;1090;102341;-63
2021/07/01 10:59:44;;;;;;;;;;;;;;;29.64;35.11;98876.04;531326;1092;103098;-63
2021/07/01 11:09:52;;;;;;;;;;;;;;;29.45;35.08;98894.34;531355;1091;103280;-63
2021/07/01 11:19:57;;;;;;;;;;;;;;;29.34;35.32;98896.00;531335;1089;102002;-62
2021/07/01 11:30:01;;;;;;;;;;;;;;;29.03;35.86;98901.59;530757;1090;102774;-63
2021/07/01 11:40:14;;;;;;;;;;;;;;;27.86;36.93;98901.95;531350;1091;103263;-62
2021/07/01 11:50:19;;;;;;;;;;;;;;;26.83;38.62;98908.67;531355;1089;102272;-62
2021/07/01 12:00:27;;;;;;;;;;;;;;;26.26;40.09;98922.21;530738;1089;103341;-62
2021/07/01 12:10:32;;;;;;;;;;;;;;;26.07;40.83;98926.66;531362;1090;102707;-64
2021/07/01 12:20:38;;;;;;;;;;;;;;;26.44;41.28;98911.53;523303;1090;103066;-64
2021/07/01 12:30:54;;;;;;;;;;;;;;;27.20;39.77;98926.78;531339;1092;102007;-64
2021/07/01 12:41:01;;;;;;;;;;;;;;;27.96;38.14;98931.89;515939;1090;102638;-63
2021/07/01 12:51:37;;;;;;;;;;;;;;;28.21;36.60;98943.63;530721;1088;102808;-63
2021/07/01 13:01:42;;;;;;;;;;;;;;;28.48;36.01;98932.41;531368;1091;102663;-65
2021/07/01 13:11:47;;;;;;;;;;;;;;;28.92;35.34;98926.73;530721;1091;102133;-62
2021/07/01 13:21:52;;;;;;;;;;;;;;;29.05;34.90;98914.84;527404;1090;103037;-62
2021/07/01 13:32:01;;;;;;;;;;;;;;;28.82;35.98;98913.80;531319;1092;102656;-63
2021/07/01 13:42:19;;;;;;;;;;;;;;;28.39;35.84;98921.14;530708;1093;102471;-65
2021/07/01 13:52:24;;;;;;;;;;;;;;;28.02;36.42;98932.86;531375;1091;102079;-62
2021/07/01 14:02:34;;;;;;;;;;;;;;;27.93;36.41;98931.52;531324;1091;103062;-62
2021/07/01 14:12:40;;;;;;;;;;;;;;;27.72;36.61;98920.20;530726;1091;103307;-63
2021/07/01 14:22:45;;;;;;;;;;;;;;;27.45;36.82;98925.08;531338;1092;102528;-62
2021/07/01 14:32:50;;;;;;;;;;;;;;;27.34;37.42;98923.94;530690;1093;102595;-62
2021/07/01 14:43:00;;;;;;;;;;;;;;;26.97;37.90;98927.45;531340;1091;103066;-62
2021/07/01 14:53:05;;;;;;;;;;;;;;;26.56;38.68;98946.61;531394;1092;102574;-63
2021/07/01 15:03:10;;;;;;;;;;;;;;;26.22;38.64;98951.41;526472;1093;101990;-63
2021/07/01 15:13:24;;;;;;;;;;;;;;;26.02;38.96;98951.50;531340;1093;102330;-62
2021/07/01 15:23:29;;;;;;;;;;;;;;;25.62;38.52;98943.61;531386;1090;101967;-63
2021/07/01 15:33:33;;;;;;;;;;;;;;;25.39;39.03;98945.73;524733;1092;102417;-62
2021/07/01 15:43:39;;;;;;;;;;;;;;;25.39;39.40;98934.16;524761;1090;102124;-63
2021/07/01 15:53:43;;;;;;;;;;;;;;;25.28;39.84;98920.37;530809;1089;102477;-62
2021/07/01 16:03:50;;;;;;;;;;;;;;;25.26;40.37;98927.78;531370;1091;101850;-64
2021/07/01 16:13:55;;;;;;;;;;;;;;;25.09;40.83;98921.23;529081;1090;102398;-62
2021/07/01 16:24:00;;;;;;;;;;;;;;;25.02;40.64;98915.88;530707;1090;103642;-62
2021/07/01 16:34:25;;;;;;;;;;;;;;;24.90;41.74;98921.05;531372;1090;102023;-62
2021/07/01 16:44:30;;;;;;;;;;;;;;;24.59;42.61;98925.19;531404;1092;101566;-63
2021/07/01 16:54:35;;;;;;;;;;;;;;;24.35;43.52;98938.99;530708;1091;102067;-62
2021/07/01 17:04:40;;;;;;;;;;;;;;;24.18;43.71;98945.75;531391;1090;102659;-63
2021/07/01 17:14:45;;;;;;;;;;;;;;;24.05;44.52;98958.11;530759;1088;102444;-63
2021/07/01 17:24:53;;;;;;;;;;;;;;;24.02;45.04;98960.36;531359;1093;102608;-62
2021/07/01 17:34:59;;;;;;;;;;;;;;;23.90;44.88;98968.14;531389;1090;102696;-64
2021/07/01 17:45:05;;;;;;;;;;;;;;;23.83;44.82;98984.20;530729;1090;101760;-63
2021/07/01 17:55:13;;;;;;;;;;;;;;;24.12;45.32;98992.98;531355;1090;103788;-63
2021/07/01 18:05:18;;;;;;;;;;;;;;;24.38;44.35;98994.09;531373;1090;103071;-62
2021/07/01 18:15:23;;;;;;;;;;;;;;;23.59;45.02;98994.41;530730;1089;102603;-61
2021/07/01 18:25:28;;;;;;;;;;;;;;;22.99;46.56;98997.50;531390;1090;102164;-62
2021/07/01 18:35:33;;;;;;;;;;;;;;;22.58;47.59;99007.03;531386;1090;102643;-62
2021/07/01 18:45:41;;;;;;;;;;;;;;;22.05;48.91;99012.61;530769;1090;101883;-62
2021/07/01 18:55:46;;;;;;;;;;;;;;;21.64;50.44;99027.24;531330;1089;102865;-63
2021/07/01 19:05:51;;;;;;;;;;;;;;;21.11;51.97;99026.27;530721;1090;103292;-63
2021/07/01 19:15:56;;;;;;;;;;;;;;;20.67;53.11;99035.78;531420;1090;103043;-63
2021/07/01 19:26:02;;;;;;;;;;;;;;;20.37;54.20;99043.63;531390;1090;102776;-62
2021/07/01 19:36:07;;;;;;;;;;;;;;;20.31;55.21;99036.34;530701;1090;102751;-62
2021/07/01 19:46:13;;;;;;;;;;;;;;;20.21;55.51;99038.41;531299;1090;101772;-62
2021/07/01 19:56:19;;;;;;;;;;;;;;;19.86;56.42;99046.70;531378;1090;102523;-62
2021/07/01 20:06:24;;;;;;;;;;;;;;;19.54;57.09;99049.27;530756;1091;104467;-62
2021/07/01 20:16:29;;;;;;;;;;;;;;;19.19;57.89;99043.33;531307;1090;103286;-63
2021/07/01 20:26:34;;;;;;;;;;;;;;;18.97;58.75;99047.48;531367;1089;102560;-62
2021/07/01 20:36:40;;;;;;;;;;;;;;;18.83;58.75;99041.83;530742;1092;102527;-63
2021/07/01 20:46:46;;;;;;;;;;;;;;;18.75;58.82;99050.61;531405;1091;102204;-62
2021/07/01 20:56:51;;;;;;;;;;;;;;;18.66;59.24;99061.41;530698;1091;102440;-63
2021/07/01 21:06:56;;;;;;;;;;;;;;;18.58;59.63;99083.50;531271;1092;104361;-63
2021/07/01 21:17:01;;;;;;;;;;;;;;;18.66;59.66;99099.48;531347;1091;101830;-61
2021/07/01 21:27:16;;;;;;;;;;;;;;;18.58;59.72;99105.63;530692;1092;102261;-62
2021/07/01 21:37:22;;;;;;;;;;;;;;;18.37;59.97;99114.02;531357;1091;103216;-62
2021/07/01 21:47:29;;;;;;;;;;;;;;;18.26;60.38;99107.17;531356;1093;102853;-62
2021/07/01 21:57:35;;;;;;;;;;;;;;;18.06;60.77;99099.45;530652;1092;102015;-62
2021/07/01 22:07:40;;;;;;;;;;;;;;;17.91;61.22;99108.97;531339;1091;102827;-62
2021/07/01 22:17:45;;;;;;;;;;;;;;;17.78;61.60;99104.92;530731;1091;103549;-62
2021/07/01 22:27:51;;;;;;;;;;;;;;;17.73;61.97;99104.55;531345;1091;103284;-63
2021/07/01 22:37:57;;;;;;;;;;;;;;;17.56;62.53;99113.41;531356;1093;104147;-63
2021/07/01 22:48:02;;;;;;;;;;;;;;;17.36;63.19;99100.33;521651;1092;102969;-62
2021/07/01 22:58:06;;;;;;;;;;;;;;;17.16;63.58;99110.29;531360;1090;102687;-62
2021/07/01 23:08:11;;;;;;;;;;;;;;;16.96;64.01;99118.36;531374;1090;102112;-62
2021/07/01 23:18:16;;;;;;;;;;;;;;;16.75;64.67;99116.02;530766;1090;103816;-62
2021/07/01 23:28:21;;;;;;;;;;;;;;;16.58;65.12;99129.08;531382;1090;102807;-62
2021/07/01 23:38:26;;;;;;;;;;;;;;;16.30;66.12;99118.50;531340;1090;102142;-64
2021/07/01 23:48:30;;;;;;;;;;;;;;;16.08;66.21;99119.70;530720;1090;102578;-62
2021/07/01 23:58:35;;;;;;;;;;;;;;;15.93;66.76;99137.89;528052;1089;102294;-62
